sensor_id;sensor_type;location;lat;lon;timestamp;P1;durP1;ratioP1;P2;durP2;ratioP2
18042;SDS011;9146;48.074;11.968;2022-10-03T00:00:09;9.40;;;6.70;;
18042;SDS011;9146;48.074;11.968;2022-10-03T00:02:42;8.63;;;6.97;;
18042;SDS011;9146;48.074;11.968;2022-10-03T00:05:36;11.27;;;6.73;;
18042;SDS011;9146;48.074;11.968;2022-10-03T00:08:17;9.93;;;7.20;;
18042;SDS011;9146;48.074;11.968;2022-10-03T00:10:58;8.47;;;6.90;;
18042;SDS011;9146;48.074;11.968;2022-10-03T00:13:33;10.43;;;6.90;;
18042;SDS011;9146;48.074;11.968;2022-10-03T00:16:12;8.67;;;6.33;;
18042;SDS011;9146;48.074;11.968;2022-10-03T00:18:45;12.20;;;7.10;;
18042;SDS011;9146;48.074;11.968;2022-10-03T00:21:38;13.73;;;7.60;;
18042;SDS011;9146;48.074;11.968;2022-10-03T00:24:18;11.67;;;7.17;;
18042;SDS011;9146;48.074;11.968;2022-10-03T00:26:53;8.93;;;6.10;;
18042;SDS011;9146;48.074;11.968;2022-10-03T00:29:31;11.07;;;7.00;;
18042;SDS011;9146;48.074;11.968;2022-10-03T00:32:23;8.13;;;6.33;;
18042;SDS011;9146;48.074;11.968;2022-10-03T00:35:01;9.00;;;6.53;;
18042;SDS011;9146;48.074;11.968;2022-10-03T00:37:43;12.93;;;7.50;;
18042;SDS011;9146;48.074;11.968;2022-10-03T00:46:48;9.50;;;5.47;;
18042;SDS011;9146;48.074;11.968;2022-10-03T00:52:33;11.20;;;7.87;;
18042;SDS011;9146;48.074;11.968;2022-10-03T00:55:17;12.90;;;8.57;;
18042;SDS011;9146;48.074;11.968;2022-10-03T00:58:05;17.67;;;9.40;;
18042;SDS011;9146;48.074;11.968;2022-10-03T01:00:48;17.97;;;8.80;;
18042;SDS011;9146;48.074;11.968;2022-10-03T01:03:23;16.53;;;9.57;;
18042;SDS011;9146;48.074;11.968;2022-10-03T01:06:05;10.97;;;8.03;;
18042;SDS011;9146;48.074;11.968;2022-10-03T01:11:45;16.70;;;9.40;;
18042;SDS011;9146;48.074;11.968;2022-10-03T01:14:32;19.07;;;10.77;;
18042;SDS011;9146;48.074;11.968;2022-10-03T01:17:16;13.80;;;9.60;;
18042;SDS011;9146;48.074;11.968;2022-10-03T01:19:56;17.37;;;11.57;;
18042;SDS011;9146;48.074;11.968;2022-10-03T01:25:40;19.23;;;10.97;;
18042;SDS011;9146;48.074;11.968;2022-10-03T01:28:27;22.20;;;11.90;;
18042;SDS011;9146;48.074;11.968;2022-10-03T01:31:27;18.10;;;9.93;;
18042;SDS011;9146;48.074;11.968;2022-10-03T01:34:00;21.60;;;12.13;;
18042;SDS011;9146;48.074;11.968;2022-10-03T01:36:33;19.43;;;10.13;;
18042;SDS011;9146;48.074;11.968;2022-10-03T01:39:06;22.83;;;12.40;;
18042;SDS011;9146;48.074;11.968;2022-10-03T01:41:43;19.77;;;10.67;;
18042;SDS011;9146;48.074;11.968;2022-10-03T01:44:19;21.23;;;12.60;;
18042;SDS011;9146;48.074;11.968;2022-10-03T01:46:49;26.93;;;12.73;;
18042;SDS011;9146;48.074;11.968;2022-10-03T01:49:21;19.80;;;11.50;;
18042;SDS011;9146;48.074;11.968;2022-10-03T01:51:57;21.53;;;12.63;;
18042;SDS011;9146;48.074;11.968;2022-10-03T01:54:33;24.70;;;12.50;;
18042;SDS011;9146;48.074;11.968;2022-10-03T01:57:09;21.40;;;12.60;;
18042;SDS011;9146;48.074;11.968;2022-10-03T01:59:42;26.30;;;13.27;;
18042;SDS011;9146;48.074;11.968;2022-10-03T02:02:18;25.83;;;12.00;;
18042;SDS011;9146;48.074;11.968;2022-10-03T02:04:52;16.40;;;10.80;;
18042;SDS011;9146;48.074;11.968;2022-10-03T02:07:28;23.17;;;11.80;;
18042;SDS011;9146;48.074;11.968;2022-10-03T02:10:08;16.27;;;11.20;;
18042;SDS011;9146;48.074;11.968;2022-10-03T02:12:47;20.73;;;11.57;;
18042;SDS011;9146;48.074;11.968;2022-10-03T02:15:23;20.17;;;12.80;;
18042;SDS011;9146;48.074;11.968;2022-10-03T02:17:54;18.17;;;11.23;;
18042;SDS011;9146;48.074;11.968;2022-10-03T02:20:29;20.87;;;11.97;;
18042;SDS011;9146;48.074;11.968;2022-10-03T02:23:04;20.60;;;12.00;;
18042;SDS011;9146;48.074;11.968;2022-10-03T02:25:50;21.03;;;11.70;;
18042;SDS011;9146;48.074;11.968;2022-10-03T02:34:34;16.53;;;11.00;;
18042;SDS011;9146;48.074;11.968;2022-10-03T02:37:30;26.00;;;11.73;;
18042;SDS011;9146;48.074;11.968;2022-10-03T02:43:30;22.03;;;11.60;;
18042;SDS011;9146;48.074;11.968;2022-10-03T02:59:08;18.50;;;10.37;;
18042;SDS011;9146;48.074;11.968;2022-10-03T03:07:58;21.50;;;10.13;;
18042;SDS011;9146;48.074;11.968;2022-10-03T03:10:54;18.30;;;12.20;;
18042;SDS011;9146;48.074;11.968;2022-10-03T03:13:57;23.23;;;12.90;;
18042;SDS011;9146;48.074;11.968;2022-10-03T03:19:52;23.90;;;10.83;;
18042;SDS011;9146;48.074;11.968;2022-10-03T03:22:45;29.73;;;12.57;;
18042;SDS011;9146;48.074;11.968;2022-10-03T03:25:28;23.90;;;11.60;;
18042;SDS011;9146;48.074;11.968;2022-10-03T03:28:19;19.87;;;10.57;;
18042;SDS011;9146;48.074;11.968;2022-10-03T03:31:00;27.20;;;11.33;;
18042;SDS011;9146;48.074;11.968;2022-10-03T03:33:35;18.97;;;12.23;;
18042;SDS011;9146;48.074;11.968;2022-10-03T03:36:17;23.90;;;12.00;;
18042;SDS011;9146;48.074;11.968;2022-10-03T03:38:54;18.07;;;9.47;;
18042;SDS011;9146;48.074;11.968;2022-10-03T03:41:39;18.33;;;10.67;;
18042;SDS011;9146;48.074;11.968;2022-10-03T03:44:29;18.80;;;9.47;;
18042;SDS011;9146;48.074;11.968;2022-10-03T03:47:24;21.50;;;11.07;;
18042;SDS011;9146;48.074;11.968;2022-10-03T03:50:13;15.90;;;9.43;;
18042;SDS011;9146;48.074;11.968;2022-10-03T03:53:20;18.53;;;10.90;;
18042;SDS011;9146;48.074;11.968;2022-10-03T03:56:02;20.67;;;10.63;;
18042;SDS011;9146;48.074;11.968;2022-10-03T03:58:42;20.73;;;10.30;;
18042;SDS011;9146;48.074;11.968;2022-10-03T04:01:26;22.60;;;10.30;;
18042;SDS011;9146;48.074;11.968;2022-10-03T04:04:22;21.47;;;10.90;;
18042;SDS011;9146;48.074;11.968;2022-10-03T04:07:03;29.10;;;11.57;;
18042;SDS011;9146;48.074;11.968;2022-10-03T04:09:46;29.67;;;11.83;;
18042;SDS011;9146;48.074;11.968;2022-10-03T04:12:26;22.17;;;11.27;;
18042;SDS011;9146;48.074;11.968;2022-10-03T04:15:07;30.87;;;12.20;;
18042;SDS011;9146;48.074;11.968;2022-10-03T04:17:57;21.20;;;10.27;;
18042;SDS011;9146;48.074;11.968;2022-10-03T04:20:59;41.07;;;13.07;;
18042;SDS011;9146;48.074;11.968;2022-10-03T04:23:37;33.27;;;12.87;;
18042;SDS011;9146;48.074;11.968;2022-10-03T04:26:23;34.60;;;15.30;;
18042;SDS011;9146;48.074;11.968;2022-10-03T04:32:07;40.10;;;16.80;;
18042;SDS011;9146;48.074;11.968;2022-10-03T04:34:52;37.47;;;17.40;;
18042;SDS011;9146;48.074;11.968;2022-10-03T04:37:33;49.97;;;18.57;;
18042;SDS011;9146;48.074;11.968;2022-10-03T04:40:16;46.27;;;17.80;;
18042;SDS011;9146;48.074;11.968;2022-10-03T04:42:51;46.23;;;18.80;;
18042;SDS011;9146;48.074;11.968;2022-10-03T04:45:37;49.03;;;19.80;;
18042;SDS011;9146;48.074;11.968;2022-10-03T04:48:12;47.73;;;18.03;;
18042;SDS011;9146;48.074;11.968;2022-10-03T04:50:49;45.70;;;19.13;;
18042;SDS011;9146;48.074;11.968;2022-10-03T04:53:33;39.90;;;17.97;;
18042;SDS011;9146;48.074;11.968;2022-10-03T04:56:12;53.10;;;19.53;;
18042;SDS011;9146;48.074;11.968;2022-10-03T04:58:49;45.40;;;17.37;;
18042;SDS011;9146;48.074;11.968;2022-10-03T05:01:23;39.73;;;17.27;;
18042;SDS011;9146;48.074;11.968;2022-10-03T05:03:59;41.97;;;17.73;;
18042;SDS011;9146;48.074;11.968;2022-10-03T05:06:34;45.07;;;17.93;;
18042;SDS011;9146;48.074;11.968;2022-10-03T05:09:17;40.77;;;19.00;;
18042;SDS011;9146;48.074;11.968;2022-10-03T05:11:54;42.93;;;15.20;;
18042;SDS011;9146;48.074;11.968;2022-10-03T05:14:27;41.07;;;14.67;;
18042;SDS011;9146;48.074;11.968;2022-10-03T05:17:13;43.77;;;16.50;;
18042;SDS011;9146;48.074;11.968;2022-10-03T05:19:48;40.23;;;17.40;;
18042;SDS011;9146;48.074;11.968;2022-10-03T05:22:36;48.40;;;16.20;;
18042;SDS011;9146;48.074;11.968;2022-10-03T05:25:18;36.60;;;16.03;;
18042;SDS011;9146;48.074;11.968;2022-10-03T05:27:53;39.90;;;16.93;;
18042;SDS011;9146;48.074;11.968;2022-10-03T05:30:33;59.80;;;21.00;;
18042;SDS011;9146;48.074;11.968;2022-10-03T05:33:10;50.13;;;18.33;;
18042;SDS011;9146;48.074;11.968;2022-10-03T05:35:47;56.77;;;18.17;;
18042;SDS011;9146;48.074;11.968;2022-10-03T05:41:31;67.47;;;21.63;;
18042;SDS011;9146;48.074;11.968;2022-10-03T05:44:01;63.80;;;20.37;;
18042;SDS011;9146;48.074;11.968;2022-10-03T05:46:37;64.93;;;22.30;;
18042;SDS011;9146;48.074;11.968;2022-10-03T05:49:25;68.57;;;20.57;;
18042;SDS011;9146;48.074;11.968;2022-10-03T05:52:18;65.70;;;19.50;;
18042;SDS011;9146;48.074;11.968;2022-10-03T05:55:07;66.83;;;21.03;;
18042;SDS011;9146;48.074;11.968;2022-10-03T05:58:01;74.40;;;19.90;;
18042;SDS011;9146;48.074;11.968;2022-10-03T06:00:53;62.07;;;20.80;;
18042;SDS011;9146;48.074;11.968;2022-10-03T06:03:40;63.73;;;20.80;;
18042;SDS011;9146;48.074;11.968;2022-10-03T06:06:32;56.23;;;18.60;;
18042;SDS011;9146;48.074;11.968;2022-10-03T06:09:25;62.03;;;20.57;;
18042;SDS011;9146;48.074;11.968;2022-10-03T06:12:23;63.57;;;20.77;;
18042;SDS011;9146;48.074;11.968;2022-10-03T06:18:13;54.93;;;19.80;;
18042;SDS011;9146;48.074;11.968;2022-10-03T06:21:11;54.70;;;18.80;;
18042;SDS011;9146;48.074;11.968;2022-10-03T06:24:02;43.23;;;18.13;;
18042;SDS011;9146;48.074;11.968;2022-10-03T06:29:52;48.73;;;18.30;;
18042;SDS011;9146;48.074;11.968;2022-10-03T06:32:43;51.40;;;20.80;;
18042;SDS011;9146;48.074;11.968;2022-10-03T06:38:37;45.33;;;17.13;;
18042;SDS011;9146;48.074;11.968;2022-10-03T06:41:40;44.43;;;18.70;;
18042;SDS011;9146;48.074;11.968;2022-10-03T06:44:36;43.70;;;19.23;;
18042;SDS011;9146;48.074;11.968;2022-10-03T06:50:39;35.53;;;18.03;;
18042;SDS011;9146;48.074;11.968;2022-10-03T06:53:32;33.70;;;16.27;;
18042;SDS011;9146;48.074;11.968;2022-10-03T06:59:22;27.73;;;15.07;;
18042;SDS011;9146;48.074;11.968;2022-10-03T07:02:28;30.10;;;16.47;;
18042;SDS011;9146;48.074;11.968;2022-10-03T07:11:56;31.57;;;15.10;;
18042;SDS011;9146;48.074;11.968;2022-10-03T07:14:49;18.23;;;11.70;;
18042;SDS011;9146;48.074;11.968;2022-10-03T07:17:51;21.40;;;12.83;;
18042;SDS011;9146;48.074;11.968;2022-10-03T07:23:51;22.33;;;12.23;;
18042;SDS011;9146;48.074;11.968;2022-10-03T07:29:55;15.37;;;11.03;;
18042;SDS011;9146;48.074;11.968;2022-10-03T07:32:51;12.80;;;9.50;;
18042;SDS011;9146;48.074;11.968;2022-10-03T07:35:52;19.57;;;12.00;;
18042;SDS011;9146;48.074;11.968;2022-10-03T07:45:32;21.47;;;11.20;;
18042;SDS011;9146;48.074;11.968;2022-10-03T07:48:16;13.50;;;9.40;;
18042;SDS011;9146;48.074;11.968;2022-10-03T07:51:22;15.23;;;10.73;;
18042;SDS011;9146;48.074;11.968;2022-10-03T08:00:14;14.10;;;8.93;;
18042;SDS011;9146;48.074;11.968;2022-10-03T08:02:56;14.70;;;8.77;;
18042;SDS011;9146;48.074;11.968;2022-10-03T08:05:54;13.30;;;8.23;;
18042;SDS011;9146;48.074;11.968;2022-10-03T08:08:58;16.23;;;7.70;;
18042;SDS011;9146;48.074;11.968;2022-10-03T08:11:44;11.30;;;8.53;;
18042;SDS011;9146;48.074;11.968;2022-10-03T08:14:41;14.13;;;8.30;;
18042;SDS011;9146;48.074;11.968;2022-10-03T08:20:26;11.40;;;7.93;;
18042;SDS011;9146;48.074;11.968;2022-10-03T08:23:09;12.90;;;8.30;;
18042;SDS011;9146;48.074;11.968;2022-10-03T08:25:54;13.10;;;7.63;;
18042;SDS011;9146;48.074;11.968;2022-10-03T08:28:39;22.00;;;8.80;;
18042;SDS011;9146;48.074;11.968;2022-10-03T08:35:01;9.23;;;8.07;;
18042;SDS011;9146;48.074;11.968;2022-10-03T08:41:16;11.63;;;7.00;;
18042;SDS011;9146;48.074;11.968;2022-10-03T08:47:16;8.87;;;7.97;;
18042;SDS011;9146;48.074;11.968;2022-10-03T08:56:05;11.30;;;7.60;;
18042;SDS011;9146;48.074;11.968;2022-10-03T08:58:54;8.17;;;7.20;;
18042;SDS011;9146;48.074;11.968;2022-10-03T09:01:57;9.90;;;7.33;;
18042;SDS011;9146;48.074;11.968;2022-10-03T09:16:58;8.90;;;7.53;;
18042;SDS011;9146;48.074;11.968;2022-10-03T09:20:03;8.30;;;6.57;;
18042;SDS011;9146;48.074;11.968;2022-10-03T09:25:46;9.83;;;6.57;;
18042;SDS011;9146;48.074;11.968;2022-10-03T09:31:30;17.30;;;6.60;;
18042;SDS011;9146;48.074;11.968;2022-10-03T09:34:28;9.37;;;5.90;;
18042;SDS011;9146;48.074;11.968;2022-10-03T09:37:26;10.63;;;5.50;;
18042;SDS011;9146;48.074;11.968;2022-10-03T09:40:23;8.73;;;6.07;;
18042;SDS011;9146;48.074;11.968;2022-10-03T09:43:39;6.53;;;5.93;;
18042;SDS011;9146;48.074;11.968;2022-10-03T09:46:47;9.27;;;5.83;;
18042;SDS011;9146;48.074;11.968;2022-10-03T09:49:58;10.50;;;6.07;;
18042;SDS011;9146;48.074;11.968;2022-10-03T09:52:52;7.77;;;5.63;;
18042;SDS011;9146;48.074;11.968;2022-10-03T09:55:47;8.53;;;6.00;;
18042;SDS011;9146;48.074;11.968;2022-10-03T09:58:39;9.90;;;6.20;;
18042;SDS011;9146;48.074;11.968;2022-10-03T10:01:23;12.60;;;7.20;;
18042;SDS011;9146;48.074;11.968;2022-10-03T10:04:07;7.67;;;6.10;;
18042;SDS011;9146;48.074;11.968;2022-10-03T10:10:36;14.30;;;6.37;;
18042;SDS011;9146;48.074;11.968;2022-10-03T10:16:32;8.37;;;5.27;;
18042;SDS011;9146;48.074;11.968;2022-10-03T10:19:17;10.00;;;5.57;;
18042;SDS011;9146;48.074;11.968;2022-10-03T10:22:18;5.57;;;4.83;;
18042;SDS011;9146;48.074;11.968;2022-10-03T10:25:16;5.13;;;4.67;;
18042;SDS011;9146;48.074;11.968;2022-10-03T10:34:53;4.60;;;4.20;;
18042;SDS011;9146;48.074;11.968;2022-10-03T10:37:51;6.20;;;5.50;;
18042;SDS011;9146;48.074;11.968;2022-10-03T10:40:42;4.80;;;3.87;;
18042;SDS011;9146;48.074;11.968;2022-10-03T10:47:02;4.70;;;3.73;;
18042;SDS011;9146;48.074;11.968;2022-10-03T10:50:01;7.50;;;5.27;;
18042;SDS011;9146;48.074;11.968;2022-10-03T11:02:31;4.60;;;4.10;;
18042;SDS011;9146;48.074;11.968;2022-10-03T11:05:33;5.80;;;4.30;;
18042;SDS011;9146;48.074;11.968;2022-10-03T11:11:33;7.23;;;4.50;;
18042;SDS011;9146;48.074;11.968;2022-10-03T11:17:52;4.63;;;3.13;;
18042;SDS011;9146;48.074;11.968;2022-10-03T11:21:06;5.13;;;3.80;;
18042;SDS011;9146;48.074;11.968;2022-10-03T11:24:13;9.50;;;3.70;;
18042;SDS011;9146;48.074;11.968;2022-10-03T11:30:22;5.20;;;3.93;;
18042;SDS011;9146;48.074;11.968;2022-10-03T11:36:14;4.43;;;3.83;;
18042;SDS011;9146;48.074;11.968;2022-10-03T11:39:02;5.43;;;3.60;;
18042;SDS011;9146;48.074;11.968;2022-10-03T11:41:36;5.13;;;3.50;;
18042;SDS011;9146;48.074;11.968;2022-10-03T11:44:17;3.87;;;3.13;;
18042;SDS011;9146;48.074;11.968;2022-10-03T11:46:49;7.43;;;3.67;;
18042;SDS011;9146;48.074;11.968;2022-10-03T11:49:47;8.70;;;3.10;;
18042;SDS011;9146;48.074;11.968;2022-10-03T11:52:30;9.93;;;3.47;;
18042;SDS011;9146;48.074;11.968;2022-10-03T11:55:03;9.70;;;3.17;;
18042;SDS011;9146;48.074;11.968;2022-10-03T11:57:44;6.40;;;3.40;;
18042;SDS011;9146;48.074;11.968;2022-10-03T12:00:19;4.23;;;3.10;;
18042;SDS011;9146;48.074;11.968;2022-10-03T12:02:56;5.70;;;3.27;;
18042;SDS011;9146;48.074;11.968;2022-10-03T12:05:41;5.50;;;3.50;;
18042;SDS011;9146;48.074;11.968;2022-10-03T12:08:20;4.90;;;2.87;;
18042;SDS011;9146;48.074;11.968;2022-10-03T12:11:10;4.30;;;3.17;;
18042;SDS011;9146;48.074;11.968;2022-10-03T12:13:57;4.03;;;3.40;;
18042;SDS011;9146;48.074;11.968;2022-10-03T12:16:37;5.27;;;3.60;;
18042;SDS011;9146;48.074;11.968;2022-10-03T12:19:27;6.13;;;3.30;;
18042;SDS011;9146;48.074;11.968;2022-10-03T12:21:58;4.37;;;3.53;;
18042;SDS011;9146;48.074;11.968;2022-10-03T12:24:35;3.90;;;2.90;;
18042;SDS011;9146;48.074;11.968;2022-10-03T12:27:06;5.20;;;4.70;;
18042;SDS011;9146;48.074;11.968;2022-10-03T12:29:42;3.23;;;2.87;;
18042;SDS011;9146;48.074;11.968;2022-10-03T12:32:20;21.57;;;4.40;;
18042;SDS011;9146;48.074;11.968;2022-10-03T12:34:59;5.40;;;3.43;;
18042;SDS011;9146;48.074;11.968;2022-10-03T12:37:48;9.17;;;4.40;;
18042;SDS011;9146;48.074;11.968;2022-10-03T12:40:27;3.73;;;3.43;;
18042;SDS011;9146;48.074;11.968;2022-10-03T12:43:04;4.60;;;3.10;;
18042;SDS011;9146;48.074;11.968;2022-10-03T12:45:41;5.17;;;3.30;;
18042;SDS011;9146;48.074;11.968;2022-10-03T12:48:18;10.17;;;3.60;;
18042;SDS011;9146;48.074;11.968;2022-10-03T12:50:59;5.10;;;3.90;;
18042;SDS011;9146;48.074;11.968;2022-10-03T12:53:33;6.90;;;3.00;;
18042;SDS011;9146;48.074;11.968;2022-10-03T12:56:18;5.47;;;3.40;;
18042;SDS011;9146;48.074;11.968;2022-10-03T12:58:52;5.80;;;2.90;;
18042;SDS011;9146;48.074;11.968;2022-10-03T13:01:33;5.03;;;2.77;;
18042;SDS011;9146;48.074;11.968;2022-10-03T13:04:10;5.07;;;2.97;;
18042;SDS011;9146;48.074;11.968;2022-10-03T13:06:52;5.20;;;2.67;;
18042;SDS011;9146;48.074;11.968;2022-10-03T13:10:00;5.60;;;2.80;;
18042;SDS011;9146;48.074;11.968;2022-10-03T13:12:36;11.70;;;2.87;;
18042;SDS011;9146;48.074;11.968;2022-10-03T13:15:35;4.37;;;3.13;;
18042;SDS011;9146;48.074;11.968;2022-10-03T13:18:15;9.83;;;3.00;;
18042;SDS011;9146;48.074;11.968;2022-10-03T13:20:54;1.90;;;1.80;;
18042;SDS011;9146;48.074;11.968;2022-10-03T13:23:28;2.47;;;2.27;;
18042;SDS011;9146;48.074;11.968;2022-10-03T13:26:06;4.50;;;3.00;;
18042;SDS011;9146;48.074;11.968;2022-10-03T13:28:41;7.73;;;3.03;;
18042;SDS011;9146;48.074;11.968;2022-10-03T13:31:21;5.17;;;2.63;;
18042;SDS011;9146;48.074;11.968;2022-10-03T13:33:51;3.00;;;2.73;;
18042;SDS011;9146;48.074;11.968;2022-10-03T13:36:21;5.87;;;2.97;;
18042;SDS011;9146;48.074;11.968;2022-10-03T13:39:03;3.87;;;2.77;;
18042;SDS011;9146;48.074;11.968;2022-10-03T13:41:43;5.60;;;3.73;;
18042;SDS011;9146;48.074;11.968;2022-10-03T13:44:30;8.90;;;3.90;;
18042;SDS011;9146;48.074;11.968;2022-10-03T13:47:02;10.00;;;4.03;;
18042;SDS011;9146;48.074;11.968;2022-10-03T13:49:47;3.23;;;2.70;;
18042;SDS011;9146;48.074;11.968;2022-10-03T13:52:20;5.10;;;3.30;;
18042;SDS011;9146;48.074;11.968;2022-10-03T13:57:43;11.50;;;5.00;;
18042;SDS011;9146;48.074;11.968;2022-10-03T14:00:21;6.20;;;3.33;;
18042;SDS011;9146;48.074;11.968;2022-10-03T14:02:53;6.70;;;2.80;;
18042;SDS011;9146;48.074;11.968;2022-10-03T14:08:31;3.40;;;3.07;;
18042;SDS011;9146;48.074;11.968;2022-10-03T14:11:17;4.40;;;3.57;;
18042;SDS011;9146;48.074;11.968;2022-10-03T14:13:59;5.50;;;3.20;;
18042;SDS011;9146;48.074;11.968;2022-10-03T14:16:40;5.20;;;3.83;;
18042;SDS011;9146;48.074;11.968;2022-10-03T14:19:14;5.30;;;3.77;;
18042;SDS011;9146;48.074;11.968;2022-10-03T14:21:50;4.20;;;3.20;;
18042;SDS011;9146;48.074;11.968;2022-10-03T14:24:28;7.43;;;3.57;;
18042;SDS011;9146;48.074;11.968;2022-10-03T14:27:05;6.20;;;3.73;;
18042;SDS011;9146;48.074;11.968;2022-10-03T14:29:44;8.97;;;3.93;;
18042;SDS011;9146;48.074;11.968;2022-10-03T14:32:23;7.07;;;3.17;;
18042;SDS011;9146;48.074;11.968;2022-10-03T14:34:57;8.53;;;3.77;;
18042;SDS011;9146;48.074;11.968;2022-10-03T14:37:33;6.97;;;4.20;;
18042;SDS011;9146;48.074;11.968;2022-10-03T14:40:09;5.50;;;3.47;;
18042;SDS011;9146;48.074;11.968;2022-10-03T14:42:54;5.43;;;4.13;;
18042;SDS011;9146;48.074;11.968;2022-10-03T14:45:30;3.43;;;3.10;;
18042;SDS011;9146;48.074;11.968;2022-10-03T14:48:05;6.40;;;3.33;;
18042;SDS011;9146;48.074;11.968;2022-10-03T14:50:38;3.87;;;3.17;;
18042;SDS011;9146;48.074;11.968;2022-10-03T14:53:07;6.63;;;2.53;;
18042;SDS011;9146;48.074;11.968;2022-10-03T14:55:43;7.43;;;3.33;;
18042;SDS011;9146;48.074;11.968;2022-10-03T14:58:15;8.40;;;3.20;;
18042;SDS011;9146;48.074;11.968;2022-10-03T15:00:46;4.23;;;2.70;;
18042;SDS011;9146;48.074;11.968;2022-10-03T15:03:27;3.60;;;3.13;;
18042;SDS011;9146;48.074;11.968;2022-10-03T15:08:58;6.37;;;2.87;;
18042;SDS011;9146;48.074;11.968;2022-10-03T15:11:30;9.43;;;3.10;;
18042;SDS011;9146;48.074;11.968;2022-10-03T15:13:59;5.57;;;2.60;;
18042;SDS011;9146;48.074;11.968;2022-10-03T15:16:31;2.93;;;2.60;;
18042;SDS011;9146;48.074;11.968;2022-10-03T15:19:03;4.40;;;2.60;;
18042;SDS011;9146;48.074;11.968;2022-10-03T15:21:34;5.10;;;2.37;;
18042;SDS011;9146;48.074;11.968;2022-10-03T15:24:07;4.70;;;2.20;;
18042;SDS011;9146;48.074;11.968;2022-10-03T15:26:36;5.60;;;2.40;;
18042;SDS011;9146;48.074;11.968;2022-10-03T15:29:06;10.77;;;3.40;;
18042;SDS011;9146;48.074;11.968;2022-10-03T15:31:42;5.47;;;2.97;;
18042;SDS011;9146;48.074;11.968;2022-10-03T15:34:15;8.77;;;3.17;;
18042;SDS011;9146;48.074;11.968;2022-10-03T15:36:45;4.67;;;2.80;;
18042;SDS011;9146;48.074;11.968;2022-10-03T15:39:16;6.67;;;2.80;;
18042;SDS011;9146;48.074;11.968;2022-10-03T15:41:47;9.50;;;3.23;;
18042;SDS011;9146;48.074;11.968;2022-10-03T15:44:18;10.73;;;3.57;;
18042;SDS011;9146;48.074;11.968;2022-10-03T15:46:53;10.60;;;3.00;;
18042;SDS011;9146;48.074;11.968;2022-10-03T15:49:28;4.77;;;2.40;;
18042;SDS011;9146;48.074;11.968;2022-10-03T15:52:02;4.37;;;2.80;;
18042;SDS011;9146;48.074;11.968;2022-10-03T15:54:38;6.10;;;3.00;;
18042;SDS011;9146;48.074;11.968;2022-10-03T15:57:12;4.20;;;2.30;;
18042;SDS011;9146;48.074;11.968;2022-10-03T15:59:44;3.20;;;2.00;;
18042;SDS011;9146;48.074;11.968;2022-10-03T16:02:18;6.10;;;3.13;;
18042;SDS011;9146;48.074;11.968;2022-10-03T16:04:52;3.13;;;2.50;;
18042;SDS011;9146;48.074;11.968;2022-10-03T16:07:22;6.13;;;2.30;;
18042;SDS011;9146;48.074;11.968;2022-10-03T16:09:58;4.97;;;2.60;;
18042;SDS011;9146;48.074;11.968;2022-10-03T16:15:26;7.53;;;2.30;;
18042;SDS011;9146;48.074;11.968;2022-10-03T16:18:00;8.97;;;2.50;;
18042;SDS011;9146;48.074;11.968;2022-10-03T16:20:33;2.90;;;2.60;;
18042;SDS011;9146;48.074;11.968;2022-10-03T16:23:08;3.07;;;2.63;;
18042;SDS011;9146;48.074;11.968;2022-10-03T16:25:42;4.17;;;2.77;;
18042;SDS011;9146;48.074;11.968;2022-10-03T16:28:13;2.77;;;2.50;;
18042;SDS011;9146;48.074;11.968;2022-10-03T16:30:46;6.03;;;2.47;;
18042;SDS011;9146;48.074;11.968;2022-10-03T16:33:22;3.70;;;2.20;;
18042;SDS011;9146;48.074;11.968;2022-10-03T16:35:56;2.53;;;2.33;;
18042;SDS011;9146;48.074;11.968;2022-10-03T16:38:25;4.90;;;2.47;;
18042;SDS011;9146;48.074;11.968;2022-10-03T16:41:01;2.63;;;2.43;;
18042;SDS011;9146;48.074;11.968;2022-10-03T16:43:30;2.87;;;2.27;;
18042;SDS011;9146;48.074;11.968;2022-10-03T16:45:58;3.80;;;2.30;;
18042;SDS011;9146;48.074;11.968;2022-10-03T16:48:27;3.70;;;2.87;;
18042;SDS011;9146;48.074;11.968;2022-10-03T16:54:02;6.47;;;4.00;;
18042;SDS011;9146;48.074;11.968;2022-10-03T16:56:32;6.13;;;3.93;;
18042;SDS011;9146;48.074;11.968;2022-10-03T16:59:04;12.43;;;4.40;;
18042;SDS011;9146;48.074;11.968;2022-10-03T17:01:37;6.20;;;3.60;;
18042;SDS011;9146;48.074;11.968;2022-10-03T17:04:14;6.60;;;4.60;;
18042;SDS011;9146;48.074;11.968;2022-10-03T17:06:48;6.30;;;4.93;;
18042;SDS011;9146;48.074;11.968;2022-10-03T17:09:19;9.67;;;4.90;;
18042;SDS011;9146;48.074;11.968;2022-10-03T17:11:52;8.10;;;3.70;;
18042;SDS011;9146;48.074;11.968;2022-10-03T17:14:25;5.80;;;3.60;;
18042;SDS011;9146;48.074;11.968;2022-10-03T17:17:01;3.83;;;3.47;;
18042;SDS011;9146;48.074;11.968;2022-10-03T17:19:32;5.07;;;3.80;;
18042;SDS011;9146;48.074;11.968;2022-10-03T17:22:11;6.10;;;3.80;;
18042;SDS011;9146;48.074;11.968;2022-10-03T17:24:43;4.90;;;3.77;;
18042;SDS011;9146;48.074;11.968;2022-10-03T17:27:14;3.00;;;2.70;;
18042;SDS011;9146;48.074;11.968;2022-10-03T17:29:50;5.73;;;2.77;;
18042;SDS011;9146;48.074;11.968;2022-10-03T17:32:22;4.43;;;2.80;;
18042;SDS011;9146;48.074;11.968;2022-10-03T17:34:55;4.47;;;3.10;;
18042;SDS011;9146;48.074;11.968;2022-10-03T17:37:43;3.10;;;2.80;;
18042;SDS011;9146;48.074;11.968;2022-10-03T17:40:43;4.00;;;3.60;;
18042;SDS011;9146;48.074;11.968;2022-10-03T17:43:17;3.40;;;2.70;;
18042;SDS011;9146;48.074;11.968;2022-10-03T17:45:53;3.20;;;3.00;;
18042;SDS011;9146;48.074;11.968;2022-10-03T17:48:31;4.13;;;3.73;;
18042;SDS011;9146;48.074;11.968;2022-10-03T17:51:13;4.17;;;3.60;;
18042;SDS011;9146;48.074;11.968;2022-10-03T17:53:57;5.13;;;4.63;;
18042;SDS011;9146;48.074;11.968;2022-10-03T17:56:27;4.30;;;3.90;;
18042;SDS011;9146;48.074;11.968;2022-10-03T17:58:57;5.30;;;4.57;;
18042;SDS011;9146;48.074;11.968;2022-10-03T18:01:30;5.50;;;5.00;;
18042;SDS011;9146;48.074;11.968;2022-10-03T18:04:02;6.70;;;5.50;;
18042;SDS011;9146;48.074;11.968;2022-10-03T18:06:34;4.80;;;4.40;;
18042;SDS011;9146;48.074;11.968;2022-10-03T18:09:17;6.60;;;5.13;;
18042;SDS011;9146;48.074;11.968;2022-10-03T18:11:51;7.40;;;5.27;;
18042;SDS011;9146;48.074;11.968;2022-10-03T18:14:28;8.67;;;7.00;;
18042;SDS011;9146;48.074;11.968;2022-10-03T18:17:02;9.83;;;7.00;;
18042;SDS011;9146;48.074;11.968;2022-10-03T18:19:37;11.83;;;8.00;;
18042;SDS011;9146;48.074;11.968;2022-10-03T18:22:45;8.17;;;6.57;;
18042;SDS011;9146;48.074;11.968;2022-10-03T18:25:17;8.10;;;7.33;;
18042;SDS011;9146;48.074;11.968;2022-10-03T18:28:13;11.40;;;8.53;;
18042;SDS011;9146;48.074;11.968;2022-10-03T18:30:47;8.90;;;8.00;;
18042;SDS011;9146;48.074;11.968;2022-10-03T18:33:18;13.27;;;8.80;;
18042;SDS011;9146;48.074;11.968;2022-10-03T18:35:49;9.20;;;7.77;;
18042;SDS011;9146;48.074;11.968;2022-10-03T18:38:17;10.13;;;8.50;;
18042;SDS011;9146;48.074;11.968;2022-10-03T18:40:49;11.30;;;10.10;;
18042;SDS011;9146;48.074;11.968;2022-10-03T18:43:21;25.70;;;14.67;;
18042;SDS011;9146;48.074;11.968;2022-10-03T18:45:52;18.40;;;13.10;;
18042;SDS011;9146;48.074;11.968;2022-10-03T18:48:26;13.30;;;11.00;;
18042;SDS011;9146;48.074;11.968;2022-10-03T18:51:01;16.90;;;11.50;;
18042;SDS011;9146;48.074;11.968;2022-10-03T18:53:36;13.50;;;10.13;;
18042;SDS011;9146;48.074;11.968;2022-10-03T18:56:10;19.33;;;10.60;;
18042;SDS011;9146;48.074;11.968;2022-10-03T18:58:42;19.17;;;13.17;;
18042;SDS011;9146;48.074;11.968;2022-10-03T19:01:14;28.63;;;18.83;;
18042;SDS011;9146;48.074;11.968;2022-10-03T19:03:45;33.87;;;20.43;;
18042;SDS011;9146;48.074;11.968;2022-10-03T19:06:18;25.50;;;16.97;;